Time;durP1;ratioP1;P1;durP2;ratioP2;P2;SDS_P1;SDS_P2;PMS_P1;PMS_P2;Temp;Humidity;BMP_temperature;BMP_pressure;BME280_temperature;BME280_humidity;BME280_pressure;Samples;Min_cycle;Max_cycle;Signal;HPM_P1;HPM_P2
2023/09/25 00:00:24;;;;;;;1.70;1.60;;;16.90;73.40;;;;;;5076988;28;20503;-58
2023/09/25 00:02:50;;;;;;;2.83;1.40;;;16.90;73.80;;;;;;5076909;28;20440;-58
2023/09/25 00:05:17;;;;;;;3.67;2.30;;;16.90;73.90;;;;;;5076971;28;20444;-58
2023/09/25 00:07:44;;;;;;;2.70;1.43;;;16.90;74.20;;;;;;5076989;28;20452;-58
2023/09/25 00:10:11;;;;;;;1.83;1.60;;;16.90;74.40;;;;;;5076716;28;20467;-57
2023/09/25 00:12:39;;;;;;;1.90;1.40;;;16.90;74.60;;;;;;5076931;28;20871;-57
2023/09/25 00:15:07;;;;;;;3.13;1.53;;;16.90;74.80;;;;;;5076735;28;20479;-57
2023/09/25 00:17:33;;;;;;;2.00;1.53;;;16.80;74.90;;;;;;5076938;28;20480;-57
2023/09/25 00:20:00;;;;;;;3.43;1.33;;;16.80;75.00;;;;;;5076597;28;20469;-57
2023/09/25 00:22:27;;;;;;;2.23;1.60;;;16.80;75.30;;;;;;5076562;28;20440;-57
2023/09/25 00:24:54;;;;;;;2.50;1.60;;;16.70;75.50;;;;;;5076176;28;20449;-57
2023/09/25 00:27:20;;;;;;;3.10;1.80;;;16.70;75.60;;;;;;5076508;28;20476;-58
2023/09/25 00:29:48;;;;;;;1.70;1.60;;;16.70;75.80;;;;;;5076332;28;20475;-58
2023/09/25 00:32:15;;;;;;;1.83;1.47;;;16.60;76.10;;;;;;5076359;28;20453;-58
2023/09/25 00:34:42;;;;;;;2.30;1.50;;;16.60;76.20;;;;;;5076350;28;20480;-57
2023/09/25 00:37:09;;;;;;;2.40;1.70;;;16.60;76.50;;;;;;5076322;28;20447;-58
2023/09/25 00:39:35;;;;;;;3.57;1.70;;;16.60;76.70;;;;;;5075919;28;20882;-57
2023/09/25 00:42:02;;;;;;;2.23;1.60;;;16.60;76.80;;;;;;5076132;28;20837;-58
2023/09/25 00:44:29;;;;;;;2.70;1.77;;;16.50;76.80;;;;;;5075803;28;20436;-57
2023/09/25 00:46:57;;;;;;;5.50;1.77;;;16.50;77.00;;;;;;5075802;28;20950;-57
2023/09/25 00:49:24;;;;;;;1.80;1.40;;;16.50;77.40;;;;;;5076096;28;20457;-57
2023/09/25 00:51:51;;;;;;;1.67;1.43;;;16.50;77.70;;;;;;5075746;28;20953;-58
2023/09/25 00:54:18;;;;;;;3.87;1.87;;;16.50;77.90;;;;;;5075769;28;20472;-57
2023/09/25 00:56:46;;;;;;;4.93;1.93;;;16.50;78.00;;;;;;5075280;28;20456;-58
2023/09/25 00:59:13;;;;;;;2.53;1.80;;;16.40;78.00;;;;;;5075908;28;20836;-58
2023/09/25 01:01:41;;;;;;;2.33;1.60;;;16.40;78.20;;;;;;5075870;28;20460;-58
2023/09/25 01:04:09;;;;;;;1.30;1.20;;;16.30;78.30;;;;;;5076391;28;20445;-58
2023/09/25 01:06:36;;;;;;;2.07;1.87;;;16.30;78.60;;;;;;5075782;28;20444;-57
2023/09/25 01:09:03;;;;;;;2.30;1.47;;;16.30;78.90;;;;;;5075292;28;20507;-57
2023/09/25 01:11:30;;;;;;;1.90;1.57;;;16.30;79.30;;;;;;5075605;28;20440;-58
2023/09/25 01:13:57;;;;;;;1.77;1.67;;;16.30;79.30;;;;;;5075456;28;20448;-57
2023/09/25 01:16:23;;;;;;;1.80;1.60;;;16.30;79.40;;;;;;5075596;28;20451;-57
2023/09/25 01:18:50;;;;;;;2.10;1.73;;;16.20;79.40;;;;;;5075500;28;20448;-57
2023/09/25 01:21:18;;;;;;;1.83;1.60;;;16.20;79.70;;;;;;5075156;28;20448;-58
2023/09/25 01:23:46;;;;;;;1.67;1.57;;;16.20;79.70;;;;;;5075179;28;20471;-57
2023/09/25 01:26:13;;;;;;;2.37;1.63;;;16.20;80.00;;;;;;5075399;28;20473;-58
2023/09/25 01:28:40;;;;;;;2.00;1.57;;;16.20;80.10;;;;;;5075325;28;20452;-58
2023/09/25 01:31:07;;;;;;;2.13;1.70;;;16.20;80.20;;;;;;5075269;28;20440;-57
2023/09/25 01:33:34;;;;;;;3.77;2.07;;;16.20;80.30;;;;;;5075218;28;20441;-57
2023/09/25 01:36:01;;;;;;;2.90;1.77;;;16.20;80.50;;;;;;5075210;28;20563;-57
2023/09/25 01:38:28;;;;;;;4.40;2.10;;;16.20;80.80;;;;;;5075115;28;20441;-57
2023/09/25 01:40:56;;;;;;;3.47;1.90;;;16.20;81.00;;;;;;5075091;28;20468;-57
2023/09/25 01:43:23;;;;;;;3.33;1.97;;;16.20;80.90;;;;;;5074899;28;20441;-58
2023/09/25 01:45:49;;;;;;;2.17;1.97;;;16.20;80.90;;;;;;5075055;28;20440;-57
2023/09/25 01:48:16;;;;;;;3.40;1.73;;;16.10;80.80;;;;;;5075046;28;20448;-57
2023/09/25 01:50:43;;;;;;;5.27;1.90;;;16.10;80.90;;;;;;5074836;28;20472;-57
2023/09/25 01:53:10;;;;;;;2.10;1.77;;;16.10;80.80;;;;;;5074918;28;20490;-58
2023/09/25 01:55:36;;;;;;;4.43;1.77;;;16.10;80.80;;;;;;5074483;28;20484;-57
2023/09/25 01:58:06;;;;;;;2.40;1.90;;;16.00;80.70;;;;;;5074681;28;20445;-57
2023/09/25 02:00:33;;;;;;;3.53;2.30;;;16.00;80.70;;;;;;5074280;28;20465;-57
2023/09/25 02:03:00;;;;;;;1.60;1.50;;;16.00;80.80;;;;;;5074707;28;20448;-57
2023/09/25 02:05:26;;;;;;;2.57;1.80;;;15.90;80.80;;;;;;5074314;28;20949;-57
2023/09/25 02:07:53;;;;;;;2.37;1.87;;;15.90;81.00;;;;;;5073138;28;20882;-58
2023/09/25 02:10:20;;;;;;;2.93;1.87;;;15.80;80.90;;;;;;5074464;28;20464;-57
2023/09/25 02:12:46;;;;;;;2.80;1.63;;;15.80;81.00;;;;;;5074404;28;20815;-58
2023/09/25 02:15:16;;;;;;;2.30;1.80;;;15.80;81.20;;;;;;5074314;28;20878;-57
2023/09/25 02:17:43;;;;;;;1.90;1.60;;;15.70;81.20;;;;;;5074354;28;20451;-57
2023/09/25 02:20:16;;;;;;;3.30;1.93;;;15.70;82.00;;;;;;5073942;28;20468;-57
2023/09/25 02:22:43;;;;;;;3.60;1.70;;;15.60;81.70;;;;;;5074204;28;20547;-57
2023/09/25 02:25:09;;;;;;;5.80;2.30;;;15.60;81.90;;;;;;5073969;28;20448;-57
2023/09/25 02:27:36;;;;;;;3.60;2.10;;;15.50;81.80;;;;;;5074342;28;20441;-57
2023/09/25 02:30:04;;;;;;;2.10;1.90;;;15.50;81.70;;;;;;5074134;28;20475;-57
2023/09/25 02:32:32;;;;;;;1.70;1.50;;;15.40;81.50;;;;;;5074199;28;20498;-57
2023/09/25 02:34:59;;;;;;;2.80;1.70;;;15.30;81.60;;;;;;5073894;28;20480;-57
2023/09/25 02:37:25;;;;;;;3.23;1.60;;;15.30;81.60;;;;;;5074012;28;20491;-57
2023/09/25 02:39:52;;;;;;;1.80;1.70;;;15.30;81.80;;;;;;5073856;28;20496;-57
2023/09/25 02:42:19;;;;;;;1.80;1.67;;;15.30;81.90;;;;;;5073892;28;20456;-57
2023/09/25 02:44:45;;;;;;;2.50;1.80;;;15.20;81.80;;;;;;5073866;28;20448;-57
2023/09/25 02:47:12;;;;;;;1.77;1.50;;;15.20;81.60;;;;;;5073871;28;20451;-57
2023/09/25 02:49:40;;;;;;;2.13;1.80;;;15.10;81.50;;;;;;5073750;28;20472;-57
2023/09/25 02:52:07;;;;;;;1.87;1.70;;;15.10;81.80;;;;;;5073707;28;20445;-57
2023/09/25 02:54:34;;;;;;;2.73;1.60;;;15.10;82.10;;;;;;5073687;28;20448;-57
2023/09/25 02:57:00;;;;;;;2.80;1.60;;;15.00;81.90;;;;;;5073715;28;20464;-57
2023/09/25 02:59:27;;;;;;;1.67;1.57;;;15.00;82.00;;;;;;5073530;28;20468;-57
2023/09/25 03:01:54;;;;;;;1.80;1.70;;;15.10;82.20;;;;;;5073639;28;20441;-57
2023/09/25 03:04:20;;;;;;;2.73;2.53;;;15.00;82.10;;;;;;5073686;28;20596;-57
2023/09/25 03:06:49;;;;;;;2.07;1.87;;;15.00;82.10;;;;;;5073322;28;20963;-57
2023/09/25 03:09:16;;;;;;;3.73;1.80;;;15.00;82.40;;;;;;5073149;28;21017;-58
2023/09/25 03:11:42;;;;;;;2.10;1.90;;;14.90;82.60;;;;;;5073442;28;20476;-57
2023/09/25 03:14:09;;;;;;;1.80;1.70;;;14.90;82.60;;;;;;5073374;28;20444;-57
2023/09/25 03:16:36;;;;;;;5.27;2.10;;;14.90;82.70;;;;;;5073366;28;20484;-57
2023/09/25 03:19:02;;;;;;;2.20;1.90;;;14.80;82.70;;;;;;5072751;28;20974;-57
2023/09/25 03:21:30;;;;;;;2.00;1.70;;;14.80;82.90;;;;;;5073490;28;20449;-57
2023/09/25 03:23:58;;;;;;;2.00;1.73;;;14.80;82.70;;;;;;5073316;28;20484;-57
2023/09/25 03:26:24;;;;;;;2.40;1.57;;;14.70;82.70;;;;;;5073342;28;20440;-57
2023/09/25 03:28:51;;;;;;;2.07;1.87;;;14.70;82.90;;;;;;5073291;28;20445;-57
2023/09/25 03:31:18;;;;;;;1.70;1.60;;;14.70;83.20;;;;;;5073358;28;20441;-57
2023/09/25 03:33:46;;;;;;;2.43;1.90;;;14.70;83.60;;;;;;5073318;28;20452;-57
2023/09/25 03:36:13;;;;;;;2.60;2.30;;;14.70;84.20;;;;;;5073249;28;20572;-57
2023/09/25 03:38:40;;;;;;;3.40;2.53;;;14.70;84.60;;;;;;5073210;28;20818;-57
2023/09/25 03:41:08;;;;;;;4.80;3.03;;;14.70;85.40;;;;;;5073217;28;20441;-57
2023/09/25 03:43:34;;;;;;;6.00;2.27;;;14.70;86.80;;;;;;5073177;28;20444;-57
2023/09/25 03:46:02;;;;;;;2.90;2.60;;;14.60;87.30;;;;;;5073142;28;20493;-57
2023/09/25 03:48:29;;;;;;;3.10;2.30;;;14.70;88.30;;;;;;5073102;28;20451;-57
2023/09/25 03:50:55;;;;;;;3.17;2.57;;;14.70;88.40;;;;;;5072762;28;21031;-57
2023/09/25 03:53:22;;;;;;;2.50;2.17;;;14.70;88.70;;;;;;5072741;28;20962;-57
2023/09/25 03:55:49;;;;;;;4.60;2.43;;;14.70;88.90;;;;;;5072756;28;20892;-57
2023/09/25 03:58:17;;;;;;;3.97;2.90;;;14.70;88.70;;;;;;5073037;28;20444;-57
2023/09/25 04:00:44;;;;;;;3.00;2.63;;;14.80;88.90;;;;;;5072921;28;20475;-57
2023/09/25 04:03:10;;;;;;;9.53;2.80;;;14.80;89.40;;;;;;5072949;28;20448;-57
2023/09/25 04:05:37;;;;;;;5.27;2.47;;;14.80;89.50;;;;;;5072935;28;20441;-57
2023/09/25 04:08:05;;;;;;;4.53;2.57;;;14.80;89.60;;;;;;5072941;28;20445;-57
2023/09/25 04:10:32;;;;;;;4.83;3.00;;;14.80;89.60;;;;;;5072761;28;20461;-57
2023/09/25 04:12:59;;;;;;;5.33;2.50;;;14.80;89.70;;;;;;5072809;28;20543;-57
2023/09/25 04:15:27;;;;;;;3.93;3.07;;;14.80;89.70;;;;;;5072795;28;20488;-57
2023/09/25 04:17:54;;;;;;;4.27;2.80;;;14.80;89.70;;;;;;5072874;28;20440;-57
2023/09/25 04:20:24;;;;;;;3.03;2.40;;;14.90;89.50;;;;;;5072483;28;20469;-57
2023/09/25 04:22:52;;;;;;;5.47;2.87;;;14.80;89.50;;;;;;5072779;28;20460;-57
2023/09/25 04:25:20;;;;;;;4.50;3.20;;;14.80;89.40;;;;;;5072395;28;20492;-57
2023/09/25 04:27:51;;;;;;;2.77;2.10;;;14.80;89.40;;;;;;5072845;28;20445;-57
2023/09/25 04:30:19;;;;;;;4.97;2.50;;;14.80;89.40;;;;;;5072975;28;20543;-57
2023/09/25 04:32:48;;;;;;;2.00;1.90;;;14.80;89.50;;;;;;5076769;28;20444;-57
2023/09/25 04:35:15;;;;;;;3.67;2.63;;;14.90;89.80;;;;;;5076330;28;20445;-57
2023/09/25 04:37:42;;;;;;;3.30;2.63;;;14.90;89.80;;;;;;5076054;28;20805;-57
2023/09/25 04:40:15;;;;;;;3.90;3.30;;;14.90;89.70;;;;;;5076105;28;20456;-57
2023/09/25 04:42:42;;;;;;;6.90;2.50;;;14.90;89.60;;;;;;5076277;28;20421;-57
2023/09/25 04:45:13;;;;;;;4.97;2.50;;;14.90;89.40;;;;;;5076049;28;20451;-57
2023/09/25 04:47:41;;;;;;;2.93;1.93;;;15.00;89.50;;;;;;5076174;28;20428;-57
2023/09/25 04:50:10;;;;;;;2.53;2.20;;;15.00;89.30;;;;;;5075732;28;20843;-57
2023/09/25 04:52:40;;;;;;;3.27;2.40;;;15.00;89.30;;;;;;5076048;28;20476;-57
2023/09/25 04:55:08;;;;;;;1.77;1.60;;;14.90;89.00;;;;;;5075970;28;20445;-57
2023/09/25 04:57:34;;;;;;;2.37;2.07;;;14.90;89.00;;;;;;5076789;28;20441;-57
2023/09/25 05:00:14;;;;;;;4.67;2.63;;;15.00;89.30;;;;;;5075877;28;20453;-57
2023/09/25 05:02:43;;;;;;;2.27;1.80;;;14.90;88.90;;;;;;5075851;28;20428;-57
2023/09/25 05:05:12;;;;;;;3.57;2.10;;;14.90;89.10;;;;;;5075825;28;20452;-57
2023/09/25 05:07:39;;;;;;;2.37;2.13;;;14.90;89.10;;;;;;5075480;28;20942;-57
2023/09/25 05:10:06;;;;;;;3.90;2.30;;;14.90;89.40;;;;;;5075634;28;20464;-57
2023/09/25 05:12:33;;;;;;;2.47;2.20;;;14.90;89.50;;;;;;5075442;28;20436;-57
2023/09/25 05:15:00;;;;;;;2.53;2.10;;;14.90;89.60;;;;;;5075638;28;20465;-57
2023/09/25 05:17:27;;;;;;;3.37;2.00;;;14.90;89.50;;;;;;5075590;28;20477;-57
2023/09/25 05:19:53;;;;;;;2.57;2.13;;;14.90;89.40;;;;;;5075584;28;20463;-57
2023/09/25 05:22:21;;;;;;;2.20;2.00;;;14.90;89.20;;;;;;5075562;28;20448;-57
2023/09/25 05:24:48;;;;;;;4.00;2.33;;;14.90;89.30;;;;;;5075273;28;20456;-57
2023/09/25 05:27:15;;;;;;;2.73;2.00;;;15.00;89.50;;;;;;5075551;28;20475;-57
2023/09/25 05:29:45;;;;;;;2.37;2.17;;;14.90;89.30;;;;;;5075089;28;20472;-57
2023/09/25 05:32:11;;;;;;;2.17;1.90;;;15.00;90.10;;;;;;5075321;28;20502;-57
2023/09/25 05:34:38;;;;;;;2.13;1.90;;;15.00;89.50;;;;;;5074970;28;20472;-57
2023/09/25 05:37:05;;;;;;;2.83;2.63;;;15.00;89.60;;;;;;5075009;28;20857;-57
2023/09/25 05:39:33;;;;;;;2.67;1.60;;;15.00;89.60;;;;;;5075102;28;20870;-57
2023/09/25 05:42:00;;;;;;;7.57;2.30;;;15.00;89.50;;;;;;5074860;28;20491;-57
2023/09/25 05:44:27;;;;;;;4.47;2.00;;;15.00;89.30;;;;;;5075013;28;20449;-57
2023/09/25 05:46:53;;;;;;;3.10;2.00;;;15.00;89.30;;;;;;5075191;28;20463;-56
2023/09/25 05:49:20;;;;;;;3.13;1.90;;;15.00;89.40;;;;;;5074819;28;20867;-56
2023/09/25 05:51:46;;;;;;;1.83;1.73;;;15.00;89.30;;;;;;5075003;28;20463;-56
2023/09/25 05:54:13;;;;;;;2.80;2.17;;;15.10;89.40;;;;;;5075157;28;20460;-56
2023/09/25 05:56:41;;;;;;;5.00;2.10;;;15.10;89.30;;;;;;5074884;28;20488;-56
2023/09/25 05:59:08;;;;;;;2.40;2.00;;;15.10;89.30;;;;;;5074799;28;20510;-57
2023/09/25 06:01:35;;;;;;;3.47;2.00;;;15.10;89.30;;;;;;5074764;28;20445;-56
2023/09/25 06:04:01;;;;;;;2.63;2.43;;;15.10;89.30;;;;;;5074491;28;20445;-56
2023/09/25 06:06:28;;;;;;;3.47;2.20;;;15.10;89.50;;;;;;5074780;28;20809;-56
2023/09/25 06:08:55;;;;;;;5.50;1.80;;;15.10;89.30;;;;;;5074613;28;20455;-57
2023/09/25 06:11:22;;;;;;;2.90;2.20;;;15.20;89.40;;;;;;5074649;28;20452;-56
2023/09/25 06:13:50;;;;;;;1.90;1.80;;;15.20;89.10;;;;;;5074493;28;20445;-57
2023/09/25 06:16:17;;;;;;;2.20;2.07;;;15.20;89.10;;;;;;5074373;28;20516;-56
2023/09/25 06:18:43;;;;;;;2.40;2.03;;;15.30;89.20;;;;;;5074533;28;20878;-57
2023/09/25 06:21:13;;;;;;;2.67;2.47;;;15.30;89.00;;;;;;5074351;28;20452;-56
2023/09/25 06:23:39;;;;;;;3.63;2.67;;;15.40;89.10;;;;;;5074236;28;20506;-56
2023/09/25 06:26:07;;;;;;;2.20;2.00;;;15.40;89.10;;;;;;5074366;28;20479;-56
2023/09/25 06:28:34;;;;;;;3.27;2.00;;;15.40;89.00;;;;;;5074366;28;20451;-56
2023/09/25 06:31:02;;;;;;;3.30;2.13;;;15.50;89.00;;;;;;5074798;28;20480;-56
2023/09/25 06:33:28;;;;;;;3.07;1.87;;;15.50;88.70;;;;;;5073931;28;20849;-56
2023/09/25 06:35:55;;;;;;;3.97;2.63;;;15.60;89.00;;;;;;5074055;28;20479;-56
2023/09/25 06:38:22;;;;;;;3.87;2.17;;;15.60;89.10;;;;;;5074105;28;20441;-57
2023/09/25 06:40:48;;;;;;;2.33;2.13;;;15.60;89.00;;;;;;5073985;28;20460;-57
2023/09/25 06:43:15;;;;;;;9.77;2.50;;;15.70;88.80;;;;;;5073948;28;20472;-57
2023/09/25 06:45:42;;;;;;;4.50;2.77;;;15.70;88.80;;;;;;5074222;28;20437;-57
2023/09/25 06:48:10;;;;;;;2.90;2.60;;;15.70;88.60;;;;;;5073825;28;20503;-56
2023/09/25 06:50:37;;;;;;;4.40;1.77;;;15.80;88.50;;;;;;5074135;28;20457;-57
2023/09/25 06:53:04;;;;;;;3.80;2.20;;;15.80;88.50;;;;;;5073626;28;20456;-57
2023/09/25 06:55:31;;;;;;;5.70;2.47;;;15.80;88.40;;;;;;5074218;28;20808;-56
2023/09/25 06:57:57;;;;;;;2.73;2.20;;;15.90;88.30;;;;;;5073686;28;21076;-56
2023/09/25 07:00:24;;;;;;;3.10;2.33;;;16.00;88.30;;;;;;5073184;28;20982;-57
2023/09/25 07:02:52;;;;;;;4.73;1.73;;;16.00;87.90;;;;;;5073548;28;20949;-57
2023/09/25 07:05:21;;;;;;;3.30;2.20;;;16.00;87.80;;;;;;5073420;28;20498;-57
2023/09/25 07:07:50;;;;;;;2.50;2.30;;;16.10;87.60;;;;;;5073278;28;20934;-57
2023/09/25 07:10:17;;;;;;;3.70;2.20;;;16.20;87.60;;;;;;5073208;28;20974;-57
2023/09/25 07:12:44;;;;;;;2.93;2.30;;;16.20;87.40;;;;;;5073708;28;20449;-58
2023/09/25 07:15:11;;;;;;;6.60;2.50;;;16.20;87.00;;;;;;5073592;28;20441;-57
2023/09/25 07:17:38;;;;;;;3.57;2.00;;;16.30;86.70;;;;;;5073148;28;21008;-57
2023/09/25 07:20:06;;;;;;;3.10;2.10;;;16.30;86.20;;;;;;5073668;28;20471;-57
2023/09/25 07:22:34;;;;;;;2.70;2.33;;;16.40;86.30;;;;;;5073536;28;20440;-57
2023/09/25 07:25:01;;;;;;;3.27;1.80;;;16.50;86.40;;;;;;5073054;28;20457;-57
2023/09/25 07:27:28;;;;;;;3.23;2.60;;;16.60;86.40;;;;;;5073296;28;20451;-57
2023/09/25 07:29:55;;;;;;;4.00;2.83;;;16.60;86.10;;;;;;5072970;28;21081;-57
2023/09/25 07:32:22;;;;;;;1.90;1.80;;;16.70;84.70;;;;;;5072774;28;20922;-57
2023/09/25 07:34:49;;;;;;;4.00;2.10;;;16.80;84.20;;;;;;5073212;28;20447;-57
2023/09/25 07:37:17;;;;;;;2.27;1.87;;;16.80;84.00;;;;;;5073245;28;20502;-57
2023/09/25 07:39:45;;;;;;;2.47;2.27;;;16.90;84.00;;;;;;5073186;28;20496;-57
2023/09/25 07:42:12;;;;;;;3.37;2.23;;;17.10;83.80;;;;;;5073156;28;20449;-57
2023/09/25 07:44:39;;;;;;;2.50;2.30;;;17.20;83.60;;;;;;5073118;28;20455;-57
2023/09/25 07:47:07;;;;;;;3.00;2.07;;;17.30;83.20;;;;;;5073175;28;20449;-57
2023/09/25 07:49:38;;;;;;;4.27;2.07;;;17.40;82.70;;;;;;5073055;28;20471;-57
2023/09/25 07:52:15;;;;;;;2.50;2.30;;;17.60;82.30;;;;;;5073445;28;20470;-57
2023/09/25 07:54:43;;;;;;;2.70;2.20;;;17.70;81.50;;;;;;5072854;28;20787;-57
2023/09/25 07:57:13;;;;;;;4.83;2.20;;;17.70;80.90;;;;;;5073005;28;20530;-57
2023/09/25 07:59:40;;;;;;;2.60;2.40;;;17.90;80.60;;;;;;5073658;28;20465;-57
2023/09/25 08:02:07;;;;;;;6.10;1.97;;;18.00;80.20;;;;;;5073557;28;20445;-58
2023/09/25 08:04:34;;;;;;;2.10;1.90;;;18.10;79.80;;;;;;5093616;28;21013;-57
2023/09/25 08:07:01;;;;;;;3.03;2.43;;;18.30;79.40;;;;;;5097233;28;20868;-57
2023/09/25 08:09:28;;;;;;;3.47;2.10;;;18.40;78.50;;;;;;5097153;28;20464;-57
2023/09/25 08:11:54;;;;;;;3.87;2.07;;;18.50;78.00;;;;;;5097149;28;20439;-57
2023/09/25 08:14:22;;;;;;;3.10;2.70;;;18.60;77.50;;;;;;5096964;28;20440;-57
2023/09/25 08:16:49;;;;;;;4.50;2.40;;;18.80;77.10;;;;;;5096910;28;20843;-57
2023/09/25 08:19:17;;;;;;;4.50;2.07;;;18.90;76.40;;;;;;5097197;28;20498;-57
2023/09/25 08:21:44;;;;;;;3.07;1.67;;;19.00;76.00;;;;;;5096575;28;20922;-57
2023/09/25 08:24:11;;;;;;;2.23;2.00;;;19.10;75.30;;;;;;5096672;28;20455;-57
2023/09/25 08:26:39;;;;;;;3.23;2.17;;;19.30;74.90;;;;;;5096912;28;20439;-57
2023/09/25 08:29:06;;;;;;;4.80;2.03;;;19.40;73.90;;;;;;5096853;28;20895;-58
2023/09/25 08:31:34;;;;;;;3.20;2.10;;;19.40;72.50;;;;;;5096681;28;20471;-57
2023/09/25 08:34:01;;;;;;;5.60;2.07;;;19.60;72.20;;;;;;5093635;28;20479;-58
2023/09/25 08:36:28;;;;;;;3.77;1.43;;;19.60;71.70;;;;;;5076309;28;20445;-57
2023/09/25 08:38:54;;;;;;;3.80;2.47;;;19.80;71.20;;;;;;5076171;28;20460;-57
2023/09/25 08:41:23;;;;;;;2.60;1.90;;;19.90;70.80;;;;;;5076335;28;20448;-58
2023/09/25 08:43:49;;;;;;;3.00;1.80;;;20.00;70.70;;;;;;5075785;28;20817;-57
2023/09/25 08:46:17;;;;;;;2.77;1.70;;;20.10;70.70;;;;;;5076171;28;20444;-57
2023/09/25 08:48:46;;;;;;;1.90;1.60;;;20.20;69.80;;;;;;5076733;28;20784;-57
2023/09/25 08:51:14;;;;;;;3.60;2.07;;;20.30;69.30;;;;;;5076112;28;20440;-57
2023/09/25 08:53:41;;;;;;;2.40;1.90;;;20.40;68.60;;;;;;5075955;28;20467;-58
2023/09/25 08:56:12;;;;;;;4.23;2.67;;;20.40;66.80;;;;;;5075995;28;20448;-58
2023/09/25 08:58:42;;;;;;;2.30;1.70;;;20.50;67.00;;;;;;5075936;28;20504;-58
2023/09/25 09:01:09;;;;;;;5.50;2.33;;;20.60;66.00;;;;;;5075567;28;20938;-58
2023/09/25 09:03:36;;;;;;;3.00;1.73;;;20.70;66.10;;;;;;5075906;28;20445;-58
2023/09/25 09:06:04;;;;;;;4.83;1.67;;;20.80;65.80;;;;;;5075879;28;20540;-57
2023/09/25 09:08:31;;;;;;;3.20;2.10;;;20.90;65.60;;;;;;5075856;28;20436;-58
2023/09/25 09:10:59;;;;;;;1.80;1.70;;;21.00;65.10;;;;;;5075939;28;20471;-57
2023/09/25 09:13:25;;;;;;;3.30;2.00;;;21.10;64.60;;;;;;5075708;28;20445;-57
2023/09/25 09:15:52;;;;;;;5.87;2.33;;;21.20;63.90;;;;;;5075439;28;20444;-57
2023/09/25 09:18:20;;;;;;;4.43;2.17;;;21.30;63.90;;;;;;5075259;28;20487;-57
2023/09/25 09:20:47;;;;;;;3.00;1.90;;;21.40;63.90;;;;;;5075601;28;20472;-58
2023/09/25 09:23:15;;;;;;;3.47;1.80;;;21.50;63.50;;;;;;5075486;28;20436;-58
2023/09/25 09:25:45;;;;;;;3.77;2.20;;;21.60;62.00;;;;;;5075526;28;20437;-57
2023/09/25 09:28:13;;;;;;;2.40;2.20;;;21.70;60.90;;;;;;5075429;28;20437;-57
2023/09/25 09:30:40;;;;;;;3.10;1.43;;;21.70;61.00;;;;;;5075419;28;20490;-57
2023/09/25 09:33:08;;;;;;;5.00;2.20;;;21.80;60.90;;;;;;5074994;28;20897;-57
2023/09/25 09:35:35;;;;;;;1.93;1.83;;;22.00;59.40;;;;;;5075361;28;20441;-58
2023/09/25 09:38:03;;;;;;;4.30;2.40;;;22.10;59.40;;;;;;5075252;28;20492;-57
2023/09/25 09:40:31;;;;;;;5.37;2.00;;;22.10;58.00;;;;;;5075120;28;20586;-58
2023/09/25 09:42:59;;;;;;;1.70;1.60;;;22.20;58.60;;;;;;5075241;28;20452;-58
2023/09/25 09:45:28;;;;;;;4.47;2.23;;;22.50;59.00;;;;;;5075043;28;20829;-58
2023/09/25 09:47:56;;;;;;;4.10;1.93;;;22.70;58.80;;;;;;5075117;28;20490;-58
2023/09/25 09:50:27;;;;;;;4.90;1.90;;;23.00;58.30;;;;;;5075046;28;20869;-58
2023/09/25 09:52:56;;;;;;;2.97;1.77;;;23.30;57.30;;;;;;5074954;28;20436;-58
2023/09/25 09:55:23;;;;;;;3.60;1.83;;;23.60;55.00;;;;;;5074629;28;20458;-58
2023/09/25 09:57:54;;;;;;;2.37;1.67;;;24.00;54.70;;;;;;5074797;28;20476;-57
2023/09/25 10:00:21;;;;;;;3.07;2.00;;;24.30;52.50;;;;;;5074688;28;20484;-58
2023/09/25 10:02:48;;;;;;;2.23;2.03;;;24.50;51.20;;;;;;5074720;28;20453;-58
2023/09/25 10:05:17;;;;;;;2.30;2.00;;;24.90;51.20;;;;;;5074337;28;20993;-58
2023/09/25 10:08:10;;;;;;;3.57;2.00;;;25.10;50.20;;;;;;5074715;28;20445;-58
2023/09/25 10:10:38;;;;;;;2.43;1.90;;;25.40;48.00;;;;;;5074524;28;20465;-58
2023/09/25 10:13:12;;;;;;;2.17;1.97;;;25.50;47.30;;;;;;5074672;28;20440;-58
2023/09/25 10:15:39;;;;;;;2.73;2.20;;;25.80;47.50;;;;;;5074608;28;20462;-58
2023/09/25 10:18:07;;;;;;;6.13;2.17;;;26.20;46.10;;;;;;5074428;28;20480;-58
2023/09/25 10:20:37;;;;;;;2.90;1.90;;;26.30;45.50;;;;;;5074715;28;20472;-58
2023/09/25 10:23:08;;;;;;;3.10;2.07;;;26.70;44.30;;;;;;5074331;28;20425;-58
2023/09/25 10:25:47;;;;;;;2.73;1.80;;;27.00;44.10;;;;;;5073916;28;20975;-58
2023/09/25 10:28:18;;;;;;;3.70;1.73;;;27.40;42.00;;;;;;5073359;28;20449;-58
2023/09/25 10:30:45;;;;;;;1.80;1.70;;;27.90;42.60;;;;;;5074280;28;20511;-59
2023/09/25 10:33:11;;;;;;;2.60;1.80;;;28.30;40.70;;;;;;5074087;28;20437;-58
2023/09/25 10:35:40;;;;;;;5.47;2.10;;;28.80;40.80;;;;;;5074109;28;20460;-58
2023/09/25 10:38:12;;;;;;;9.10;1.97;;;29.20;38.20;;;;;;5073629;28;20523;-56
2023/09/25 10:40:42;;;;;;;4.27;2.50;;;29.30;37.20;;;;;;5073913;28;20467;-56
2023/09/25 10:43:09;;;;;;;5.27;2.07;;;29.40;36.80;;;;;;5073904;28;20431;-57
2023/09/25 10:45:38;;;;;;;2.10;1.90;;;29.70;37.60;;;;;;5074007;28;20440;-56
2023/09/25 10:48:06;;;;;;;3.27;1.93;;;30.20;36.80;;;;;;5073909;28;20448;-56
2023/09/25 10:50:32;;;;;;;1.80;1.70;;;30.40;35.10;;;;;;5073777;28;20541;-56
2023/09/25 10:52:59;;;;;;;3.60;2.00;;;30.50;34.40;;;;;;5073745;28;20444;-57
2023/09/25 10:55:26;;;;;;;2.93;1.87;;;30.60;36.80;;;;;;5073004;28;20816;-57
2023/09/25 10:57:53;;;;;;;2.47;1.63;;;30.90;35.60;;;;;;5071597;28;21022;-57
2023/09/25 11:00:19;;;;;;;2.87;2.00;;;31.20;35.70;;;;;;5072933;28;20487;-57
2023/09/25 11:02:48;;;;;;;2.93;2.07;;;31.60;35.40;;;;;;5073532;28;20440;-57
2023/09/25 11:05:15;;;;;;;3.40;1.80;;;31.90;32.90;;;;;;5073629;28;20444;-57
2023/09/25 11:07:42;;;;;;;3.83;2.37;;;32.10;33.20;;;;;;5073585;28;20443;-57
2023/09/25 11:10:10;;;;;;;6.47;1.87;;;32.40;33.20;;;;;;5073212;28;20467;-56
2023/09/25 11:12:37;;;;;;;3.70;2.07;;;32.80;32.80;;;;;;5073544;28;20513;-57
2023/09/25 11:15:10;;;;;;;3.17;1.77;;;33.10;32.50;;;;;;5073477;28;20856;-57
2023/09/25 11:17:37;;;;;;;2.47;2.20;;;33.30;30.10;;;;;;5073290;28;21055;-57
2023/09/25 11:20:11;;;;;;;4.10;2.20;;;33.50;31.30;;;;;;5073552;28;20917;-56
2023/09/25 11:22:38;;;;;;;2.57;1.60;;;33.80;30.90;;;;;;5073476;28;20480;-57
2023/09/25 11:25:11;;;;;;;4.20;2.73;;;34.10;30.70;;;;;;5073166;28;20501;-57
2023/09/25 11:27:38;;;;;;;3.97;2.20;;;34.40;29.80;;;;;;5073498;28;20474;-57
2023/09/25 11:30:08;;;;;;;2.30;1.80;;;34.80;29.30;;;;;;5073296;28;20977;-57
2023/09/25 11:32:39;;;;;;;4.93;1.70;;;35.30;28.70;;;;;;5073094;28;20450;-57
2023/09/25 11:35:12;;;;;;;3.47;2.43;;;35.70;26.70;;;;;;5072952;28;20202;-57
2023/09/25 11:37:39;;;;;;;2.67;2.30;;;35.90;26.10;;;;;;5073276;28;20690;-57
2023/09/25 11:40:08;;;;;;;4.00;2.27;;;36.20;26.90;;;;;;5076468;28;20218;-57
2023/09/25 11:42:35;;;;;;;4.78;2.00;;;36.70;25.70;;;;;;5080011;28;20201;-57
2023/09/25 11:45:01;;;;;;;2.40;1.88;;;37.20;25.70;;;;;;5080057;28;20631;-57
2023/09/25 11:47:28;;;;;;;2.13;1.88;;;37.70;24.50;;;;;;5079668;28;20579;-57
2023/09/25 11:49:56;;;;;;;1.80;1.60;;;38.20;24.30;;;;;;5079574;28;20707;-57
2023/09/25 11:52:24;;;;;;;2.72;2.15;;;38.50;25.00;;;;;;5079818;28;20236;-57
2023/09/25 11:54:52;;;;;;;2.08;1.55;;;38.90;24.40;;;;;;5079814;28;20206;-56
2023/09/25 11:57:19;;;;;;;4.28;1.92;;;39.20;24.30;;;;;;5079865;28;20201;-56
2023/09/25 11:59:45;;;;;;;2.47;2.13;;;39.50;23.80;;;;;;5079638;28;20236;-56
2023/09/25 12:02:12;;;;;;;3.75;2.00;;;39.70;22.10;;;;;;5079774;28;20288;-56
2023/09/25 12:04:39;;;;;;;2.22;1.98;;;39.80;21.30;;;;;;5079965;28;20213;-57
2023/09/25 12:07:06;;;;;;;2.67;1.98;;;39.90;21.40;;;;;;5079700;28;20197;-56
2023/09/25 12:09:34;;;;;;;5.13;2.22;;;40.10;22.20;;;;;;5079644;28;20563;-57
2023/09/25 12:12:03;;;;;;;2.90;1.98;;;40.30;22.00;;;;;;5079718;28;20229;-56
2023/09/25 12:14:30;;;;;;;2.95;2.20;;;40.40;21.90;;;;;;5079595;28;20202;-57
2023/09/25 12:16:57;;;;;;;2.83;1.60;;;40.60;20.90;;;;;;5079746;28;20202;-56
2023/09/25 12:19:24;;;;;;;2.47;1.98;;;40.70;20.70;;;;;;5079560;28;20279;-56
2023/09/25 12:21:50;;;;;;;2.83;1.67;;;40.80;20.40;;;;;;5079707;28;20205;-57
2023/09/25 12:24:19;;;;;;;3.33;1.85;;;40.60;19.30;;;;;;5079463;28;20214;-57
2023/09/25 12:26:46;;;;;;;5.72;1.98;;;40.60;21.10;;;;;;5080127;28;20213;-57
2023/09/25 12:29:13;;;;;;;1.83;1.73;;;40.90;20.50;;;;;;5079474;28;20309;-57
2023/09/25 12:31:40;;;;;;;2.95;1.98;;;41.40;21.00;;;;;;5079467;28;20202;-57
2023/09/25 12:34:06;;;;;;;1.92;1.73;;;41.80;20.10;;;;;;5079200;28;20205;-57
2023/09/25 12:36:33;;;;;;;2.40;1.70;;;41.90;20.00;;;;;;5079572;28;20201;-57
2023/09/25 12:39:00;;;;;;;3.65;2.03;;;42.00;19.10;;;;;;5079129;28;20225;-57
2023/09/25 12:41:27;;;;;;;3.08;2.00;;;42.20;19.40;;;;;;5079344;28;20206;-57
2023/09/25 12:43:55;;;;;;;2.70;1.50;;;42.10;19.00;;;;;;5079169;28;20212;-57
2023/09/25 12:46:22;;;;;;;1.90;1.67;;;41.50;18.00;;;;;;5079570;28;20206;-57
2023/09/25 12:48:49;;;;;;;1.92;1.58;;;40.80;18.60;;;;;;5079321;28;20198;-57